Time;durP1;ratioP1;P1;durP2;ratioP2;P2;SDS_P1;SDS_P2;PMS_P1;PMS_P2;Temp;Humidity;BMP_temperature;BMP_pressure;BME280_temperature;BME280_humidity;BME280_pressure;Samples;Min_cycle;Max_cycle;Signal;HPM_P1;HPM_P2
2021/04/17 00:02:25;;;;;;;5.10;2.07;;;;;;;;;;5067252;28;20044;-67
2021/04/17 00:04:50;;;;;;;5.60;2.40;;;;;;;;;;5065084;28;20560;-66
2021/04/17 00:07:16;;;;;;;6.77;2.60;;;;;;;;;;5064051;28;20024;-67
2021/04/17 00:09:42;;;;;;;10.60;2.80;;;;;;;;;;5057070;28;20028;-66
2021/04/17 00:12:12;;;;;;;6.87;2.67;;;;;;;;;;5064891;28;20608;-66
2021/04/17 00:14:38;;;;;;;7.77;3.67;;;;;;;;;;5064778;28;20487;-67
2021/04/17 00:17:04;;;;;;;11.60;3.50;;;;;;;;;;5065551;28;20427;-67
2021/04/17 00:19:29;;;;;;;7.33;3.30;;;;;;;;;;5074109;28;20304;-67
2021/04/17 00:21:54;;;;;;;8.03;2.67;;;;;;;;;;5068337;28;20060;-67
2021/04/17 00:24:20;;;;;;;10.40;2.93;;;;;;;;;;5068395;28;20021;-66
2021/04/17 00:26:45;;;;;;;8.87;2.90;;;;;;;;;;5073340;28;20114;-67
2021/04/17 00:29:10;;;;;;;8.37;2.60;;;;;;;;;;5072330;28;20032;-66
2021/04/17 00:31:36;;;;;;;13.80;3.13;;;;;;;;;;5066935;28;20028;-66
2021/04/17 00:34:02;;;;;;;9.07;2.80;;;;;;;;;;5066726;28;20038;-66
2021/04/17 00:36:27;;;;;;;7.80;2.73;;;;;;;;;;5063279;28;20084;-66
2021/04/17 00:38:52;;;;;;;10.10;2.70;;;;;;;;;;5064166;28;20416;-66
2021/04/17 00:41:18;;;;;;;7.17;2.60;;;;;;;;;;5062819;28;20028;-66
2021/04/17 00:43:43;;;;;;;6.90;2.13;;;;;;;;;;5068126;28;20037;-66
2021/04/17 00:46:09;;;;;;;11.53;2.60;;;;;;;;;;5055908;28;20155;-66
2021/04/17 00:48:34;;;;;;;7.53;2.50;;;;;;;;;;5070048;28;20016;-66
2021/04/17 00:50:59;;;;;;;7.63;2.43;;;;;;;;;;5070048;28;20105;-66
2021/04/17 00:53:25;;;;;;;9.80;2.27;;;;;;;;;;5072850;28;20025;-66
2021/04/17 00:55:50;;;;;;;10.33;2.53;;;;;;;;;;5066908;28;20527;-66
2021/04/17 00:58:16;;;;;;;7.73;2.57;;;;;;;;;;5067445;28;20138;-66
2021/04/17 01:00:42;;;;;;;5.70;2.50;;;;;;;;;;5063432;28;20028;-66
2021/04/17 01:03:17;;;;;;;7.53;2.23;;;;;;;;;;5102209;22;20398;-77
2021/04/17 01:05:43;;;;;;;13.33;2.40;;;;;;;;;;5105536;28;20103;-77
2021/04/17 01:08:14;;;;;;;13.23;2.30;;;;;;;;;;5103235;28;20277;-77
2021/04/17 01:10:42;;;;;;;6.80;2.27;;;;;;;;;;5100519;28;20781;-77
2021/04/17 01:13:07;;;;;;;10.40;2.40;;;;;;;;;;5099680;28;20269;-77
2021/04/17 01:15:33;;;;;;;9.40;2.23;;;;;;;;;;5107245;28;20737;-77
2021/04/17 01:17:59;;;;;;;9.73;2.57;;;;;;;;;;5105067;28;20027;-77
2021/04/17 01:20:36;;;;;;;10.80;2.37;;;;;;;;;;5108012;28;20027;-77
2021/04/17 01:23:07;;;;;;;8.23;2.20;;;;;;;;;;5101926;28;20296;-78
2021/04/17 01:25:52;;;;;;;7.07;2.23;;;;;;;;;;5098988;28;20509;-78
2021/04/17 01:28:18;;;;;;;9.07;2.30;;;;;;;;;;5112157;28;20364;-78
2021/04/17 01:30:45;;;;;;;6.73;2.23;;;;;;;;;;5106599;28;20342;-78
2021/04/17 01:33:10;;;;;;;6.70;2.20;;;;;;;;;;5101188;28;20285;-78
2021/04/17 01:35:36;;;;;;;7.13;2.30;;;;;;;;;;5105067;28;20768;-78
2021/04/17 01:38:04;;;;;;;8.07;2.00;;;;;;;;;;5098057;28;20101;-78
2021/04/17 01:40:30;;;;;;;8.17;2.83;;;;;;;;;;5104971;28;20357;-77
2021/04/17 01:42:56;;;;;;;13.13;3.27;;;;;;;;;;5107351;28;20618;-77
2021/04/17 01:45:23;;;;;;;6.77;2.40;;;;;;;;;;5108630;28;20294;-77
2021/04/17 01:47:49;;;;;;;7.67;2.87;;;;;;;;;;5103032;28;20035;-77
2021/04/17 01:50:16;;;;;;;6.70;2.30;;;;;;;;;;5099265;28;20282;-77
2021/04/17 01:52:44;;;;;;;8.07;2.10;;;;;;;;;;5109871;28;20057;-77
2021/04/17 01:55:09;;;;;;;12.10;2.57;;;;;;;;;;5109682;28;20360;-77
2021/04/17 01:57:36;;;;;;;5.20;2.27;;;;;;;;;;5104641;28;20442;-77
2021/04/17 02:00:02;;;;;;;8.87;2.03;;;;;;;;;;5107692;28;20028;-77
2021/04/17 02:02:27;;;;;;;7.33;2.73;;;;;;;;;;5107600;28;20304;-77
2021/04/17 02:04:53;;;;;;;10.73;2.83;;;;;;;;;;5088901;28;20035;-78
2021/04/17 02:07:18;;;;;;;9.10;2.60;;;;;;;;;;5086685;28;20030;-78
2021/04/17 02:09:44;;;;;;;6.03;2.40;;;;;;;;;;5089999;28;20274;-78
2021/04/17 02:12:09;;;;;;;10.63;3.37;;;;;;;;;;5080065;28;20032;-77
2021/04/17 02:14:35;;;;;;;9.40;2.60;;;;;;;;;;5087744;28;20279;-77
2021/04/17 02:17:14;;;;;;;12.07;4.23;;;;;;;;;;5087909;28;20048;-77
2021/04/17 02:19:48;;;;;;;12.07;2.73;;;;;;;;;;5086805;28;20028;-77
2021/04/17 02:22:14;;;;;;;10.83;3.93;;;;;;;;;;5091715;28;20750;-77
2021/04/17 02:24:39;;;;;;;8.83;3.20;;;;;;;;;;5092270;28;20269;-77
2021/04/17 02:27:05;;;;;;;7.20;2.57;;;;;;;;;;5081165;28;20055;-78
2021/04/17 02:29:30;;;;;;;10.43;3.30;;;;;;;;;;5092055;28;20018;-77
2021/04/17 02:31:55;;;;;;;11.10;3.27;;;;;;;;;;5085853;28;20055;-77
2021/04/17 02:34:21;;;;;;;13.33;4.00;;;;;;;;;;5098213;28;20564;-77
2021/04/17 02:36:47;;;;;;;12.00;3.37;;;;;;;;;;5088648;28;20035;-77
2021/04/17 02:39:12;;;;;;;11.73;3.60;;;;;;;;;;5101706;28;20035;-77
2021/04/17 02:41:37;;;;;;;12.00;3.70;;;;;;;;;;5086497;28;20046;-77
2021/04/17 02:44:03;;;;;;;13.27;3.73;;;;;;;;;;5092491;28;20029;-77
2021/04/17 02:46:28;;;;;;;17.27;4.20;;;;;;;;;;5088450;28;20368;-77
2021/04/17 02:48:54;;;;;;;9.83;3.77;;;;;;;;;;5087061;28;20499;-77
2021/04/17 02:51:19;;;;;;;12.50;3.67;;;;;;;;;;5086095;28;20066;-77
2021/04/17 02:53:44;;;;;;;9.47;3.80;;;;;;;;;;5091782;28;21555;-77
2021/04/17 02:56:09;;;;;;;17.23;4.63;;;;;;;;;;5093099;28;20039;-79
2021/04/17 02:58:35;;;;;;;14.67;4.60;;;;;;;;;;5095228;28;20107;-79
2021/04/17 03:01:00;;;;;;;10.70;3.73;;;;;;;;;;5092309;28;20031;-78
2021/04/17 03:03:26;;;;;;;14.97;4.30;;;;;;;;;;5087900;28;20178;-78
2021/04/17 03:05:51;;;;;;;10.90;4.07;;;;;;;;;;5090577;28;20015;-78
2021/04/17 03:08:16;;;;;;;15.20;4.63;;;;;;;;;;5094540;28;20031;-78
2021/04/17 03:10:42;;;;;;;13.20;4.53;;;;;;;;;;5081996;28;20344;-77
2021/04/17 03:13:07;;;;;;;12.17;4.30;;;;;;;;;;5089246;28;20024;-77
2021/04/17 03:15:33;;;;;;;17.97;4.90;;;;;;;;;;5089092;28;20360;-77
2021/04/17 03:17:58;;;;;;;14.63;4.80;;;;;;;;;;5092642;28;20421;-77
2021/04/17 03:20:23;;;;;;;16.67;4.93;;;;;;;;;;5094642;28;20009;-77
2021/04/17 03:22:49;;;;;;;15.77;4.97;;;;;;;;;;5098290;28;20039;-77
2021/04/17 03:25:14;;;;;;;18.70;5.73;;;;;;;;;;5103794;28;20024;-77
2021/04/17 03:27:40;;;;;;;14.73;5.30;;;;;;;;;;5092208;28;20020;-77
2021/04/17 03:30:07;;;;;;;17.83;5.70;;;;;;;;;;5101702;28;20066;-77
2021/04/17 03:32:33;;;;;;;21.33;5.50;;;;;;;;;;5098465;28;20284;-77
2021/04/17 03:34:59;;;;;;;17.43;5.40;;;;;;;;;;5092750;28;20266;-77
2021/04/17 03:37:24;;;;;;;26.60;6.87;;;;;;;;;;5089784;28;20480;-77
2021/04/17 03:39:49;;;;;;;26.87;5.33;;;;;;;;;;5094005;28;20084;-77
2021/04/17 03:42:15;;;;;;;23.87;5.57;;;;;;;;;;5093880;28;20077;-77
2021/04/17 03:44:40;;;;;;;22.23;5.87;;;;;;;;;;5103295;28;20027;-78
2021/04/17 03:47:05;;;;;;;17.30;6.00;;;;;;;;;;5103694;28;20736;-78
2021/04/17 03:49:30;;;;;;;18.43;6.33;;;;;;;;;;5095959;28;20111;-77
2021/04/17 03:51:56;;;;;;;16.13;5.40;;;;;;;;;;5094574;28;20028;-77
2021/04/17 03:54:21;;;;;;;19.70;5.80;;;;;;;;;;5096088;28;20487;-77
2021/04/17 03:56:46;;;;;;;22.77;6.60;;;;;;;;;;5089117;28;20039;-77
2021/04/17 03:59:11;;;;;;;24.43;5.93;;;;;;;;;;5094679;28;20031;-77
2021/04/17 04:01:37;;;;;;;21.30;6.13;;;;;;;;;;5091816;28;20459;-78
2021/04/17 04:04:02;;;;;;;15.93;5.80;;;;;;;;;;5092547;28;20090;-78
2021/04/17 04:06:27;;;;;;;15.93;5.80;;;;;;;;;;5095140;28;20456;-78
2021/04/17 04:08:53;;;;;;;20.00;6.13;;;;;;;;;;5092052;28;20027;-78
2021/04/17 04:11:18;;;;;;;15.83;6.13;;;;;;;;;;5092837;28;20051;-78
2021/04/17 04:13:43;;;;;;;19.53;6.40;;;;;;;;;;5094010;28;20028;-78
2021/04/17 04:16:09;;;;;;;17.97;6.93;;;;;;;;;;5094306;28;20028;-78
2021/04/17 04:18:34;;;;;;;19.87;6.67;;;;;;;;;;5082013;28;20024;-78
2021/04/17 04:20:59;;;;;;;23.60;7.17;;;;;;;;;;5096260;28;20060;-78
2021/04/17 04:23:25;;;;;;;20.13;7.57;;;;;;;;;;5095143;28;20016;-78
2021/04/17 04:25:50;;;;;;;20.53;6.60;;;;;;;;;;5089881;28;20487;-78
2021/04/17 04:28:15;;;;;;;22.03;6.60;;;;;;;;;;5097527;28;20024;-78
2021/04/17 04:30:40;;;;;;;20.40;7.50;;;;;;;;;;5099671;28;20031;-78
2021/04/17 04:33:06;;;;;;;38.03;8.60;;;;;;;;;;5090472;28;20028;-78
2021/04/17 04:35:31;;;;;;;18.33;6.83;;;;;;;;;;5085739;28;20498;-78
2021/04/17 04:37:56;;;;;;;20.43;6.97;;;;;;;;;;5087664;28;20533;-78
2021/04/17 04:40:22;;;;;;;17.53;6.77;;;;;;;;;;5098432;28;20098;-78
2021/04/17 04:42:47;;;;;;;20.93;6.37;;;;;;;;;;5099521;28;20085;-78
2021/04/17 04:45:13;;;;;;;22.80;7.37;;;;;;;;;;5101386;28;20400;-78
2021/04/17 04:47:38;;;;;;;21.60;7.37;;;;;;;;;;5096556;28;20100;-78
2021/04/17 04:50:04;;;;;;;27.10;7.73;;;;;;;;;;5092921;28;20032;-77
2021/04/17 04:52:30;;;;;;;23.10;7.97;;;;;;;;;;5094966;28;20020;-77
2021/04/17 04:54:55;;;;;;;24.27;8.23;;;;;;;;;;5087019;28;20379;-77
2021/04/17 04:57:20;;;;;;;21.33;7.63;;;;;;;;;;5084301;28;20024;-79
2021/04/17 04:59:46;;;;;;;22.63;7.83;;;;;;;;;;5100951;28;20566;-78
2021/04/17 05:02:11;;;;;;;19.73;6.77;;;;;;;;;;5090731;28;20134;-78
2021/04/17 05:04:36;;;;;;;23.60;6.90;;;;;;;;;;5089095;28;20361;-78
2021/04/17 05:07:02;;;;;;;18.47;7.47;;;;;;;;;;5091276;28;20024;-78
2021/04/17 05:09:27;;;;;;;25.00;8.73;;;;;;;;;;5096097;28;20111;-78
2021/04/17 05:11:52;;;;;;;25.53;8.17;;;;;;;;;;5087963;28;20021;-78
2021/04/17 05:14:18;;;;;;;25.77;7.63;;;;;;;;;;5085484;28;20031;-78
2021/04/17 05:16:43;;;;;;;20.77;7.73;;;;;;;;;;5092424;28;20077;-78
2021/04/17 05:19:08;;;;;;;27.73;7.93;;;;;;;;;;5092468;28;20031;-78
2021/04/17 05:21:34;;;;;;;23.40;8.20;;;;;;;;;;5091023;28;20031;-78
2021/04/17 05:23:59;;;;;;;25.90;8.27;;;;;;;;;;5088758;28;20595;-78
2021/04/17 05:26:25;;;;;;;22.30;7.27;;;;;;;;;;5091181;28;20106;-78
2021/04/17 05:28:50;;;;;;;29.63;8.50;;;;;;;;;;5092923;28;20023;-78
2021/04/17 05:31:15;;;;;;;20.40;7.33;;;;;;;;;;5093009;28;20039;-78
2021/04/17 05:33:41;;;;;;;22.73;6.77;;;;;;;;;;5092119;28;20024;-78
2021/04/17 05:36:06;;;;;;;23.63;6.70;;;;;;;;;;5090235;28;20028;-77
2021/04/17 05:38:32;;;;;;;25.03;7.87;;;;;;;;;;5101454;28;20027;-77
2021/04/17 05:40:57;;;;;;;26.10;7.97;;;;;;;;;;5093004;28;20088;-78
2021/04/17 05:43:22;;;;;;;18.13;5.97;;;;;;;;;;5100022;28;20023;-78
2021/04/17 05:45:47;;;;;;;21.97;6.67;;;;;;;;;;5093301;28;20024;-78
2021/04/17 05:48:13;;;;;;;20.97;6.67;;;;;;;;;;5090683;28;20024;-78
2021/04/17 05:50:38;;;;;;;21.60;6.13;;;;;;;;;;5091221;28;20116;-77
2021/04/17 05:53:03;;;;;;;21.23;6.77;;;;;;;;;;5093677;28;20024;-77
2021/04/17 05:55:29;;;;;;;19.57;6.70;;;;;;;;;;5090885;28;20035;-77
2021/04/17 05:57:54;;;;;;;21.10;6.00;;;;;;;;;;5095392;28;20066;-77
2021/04/17 06:00:20;;;;;;;20.30;6.30;;;;;;;;;;5094740;28;20024;-77
2021/04/17 06:02:45;;;;;;;18.33;6.90;;;;;;;;;;5092854;28;20043;-77
2021/04/17 06:05:10;;;;;;;18.70;6.43;;;;;;;;;;5087361;28;20069;-78
2021/04/17 06:07:36;;;;;;;15.90;5.83;;;;;;;;;;5094439;28;20776;-78
2021/04/17 06:10:01;;;;;;;14.63;5.93;;;;;;;;;;5093126;28;20027;-77
2021/04/17 06:12:26;;;;;;;20.37;5.97;;;;;;;;;;5088055;28;20099;-78
2021/04/17 06:14:52;;;;;;;15.23;5.53;;;;;;;;;;5088418;28;20040;-78
2021/04/17 06:17:17;;;;;;;15.57;5.23;;;;;;;;;;5089663;28;20032;-78
2021/04/17 06:19:42;;;;;;;14.90;4.90;;;;;;;;;;5096225;28;20077;-79
2021/04/17 06:22:07;;;;;;;14.67;4.77;;;;;;;;;;5090436;28;20159;-78
2021/04/17 06:24:33;;;;;;;14.70;4.93;;;;;;;;;;5086703;28;20024;-78
2021/04/17 06:26:58;;;;;;;16.43;4.60;;;;;;;;;;5089083;28;20091;-78
2021/04/17 06:29:23;;;;;;;14.30;5.07;;;;;;;;;;5092969;28;20077;-78
2021/04/17 06:31:48;;;;;;;10.73;4.10;;;;;;;;;;5089318;28;20045;-78
2021/04/17 06:34:14;;;;;;;11.30;3.83;;;;;;;;;;5089611;28;20031;-77
2021/04/17 06:36:39;;;;;;;8.77;3.93;;;;;;;;;;5088970;28;20454;-77
2021/04/17 06:39:08;;;;;;;12.90;4.60;;;;;;;;;;5084554;28;20063;-77
2021/04/17 06:41:34;;;;;;;11.33;3.87;;;;;;;;;;5091067;28;20020;-77
2021/04/17 06:44:03;;;;;;;11.30;4.27;;;;;;;;;;5092018;28;20035;-77
2021/04/17 06:46:30;;;;;;;9.53;3.60;;;;;;;;;;5089459;28;20111;-77
2021/04/17 06:48:56;;;;;;;11.20;3.97;;;;;;;;;;5079103;28;20028;-77
2021/04/17 06:51:22;;;;;;;12.23;3.97;;;;;;;;;;5091015;28;20024;-78
2021/04/17 06:53:47;;;;;;;10.70;4.20;;;;;;;;;;5095158;28;20028;-77
2021/04/17 06:56:13;;;;;;;17.23;4.47;;;;;;;;;;5086778;28;20465;-79
2021/04/17 06:58:39;;;;;;;10.73;3.90;;;;;;;;;;5101079;28;20436;-78
2021/04/17 07:01:05;;;;;;;7.87;3.47;;;;;;;;;;5087008;28;20035;-78
2021/04/17 07:03:30;;;;;;;9.00;3.87;;;;;;;;;;5090070;28;20048;-78
2021/04/17 07:05:55;;;;;;;11.27;4.23;;;;;;;;;;5071543;28;20027;-78
2021/04/17 07:08:21;;;;;;;14.23;3.80;;;;;;;;;;5093597;28;20099;-78
2021/04/17 07:10:46;;;;;;;11.40;4.83;;;;;;;;;;5086972;28;20051;-78
2021/04/17 07:13:12;;;;;;;13.43;4.27;;;;;;;;;;5094369;28;20109;-78
2021/04/17 07:15:39;;;;;;;10.90;4.23;;;;;;;;;;5091659;28;20498;-78
2021/04/17 07:18:22;;;;;;;11.23;3.70;;;;;;;;;;5103676;28;20077;-78
2021/04/17 07:20:48;;;;;;;12.47;4.40;;;;;;;;;;5093010;28;20031;-78
2021/04/17 07:23:33;;;;;;;12.83;4.17;;;;;;;;;;5102789;28;20024;-78
2021/04/17 07:26:07;;;;;;;9.27;4.30;;;;;;;;;;5093861;28;20434;-78
2021/04/17 07:28:35;;;;;;;9.83;3.43;;;;;;;;;;5092663;28;20464;-78
2021/04/17 07:31:00;;;;;;;8.63;3.00;;;;;;;;;;5091240;28;20456;-79
2021/04/17 07:33:29;;;;;;;8.43;3.63;;;;;;;;;;5089708;28;20024;-78
2021/04/17 07:35:54;;;;;;;10.10;3.07;;;;;;;;;;5088371;28;20028;-78
2021/04/17 07:38:20;;;;;;;7.20;3.40;;;;;;;;;;5090665;28;20027;-78
2021/04/17 07:41:00;;;;;;;6.10;2.90;;;;;;;;;;5087564;28;20496;-79
2021/04/17 07:43:43;;;;;;;8.10;3.20;;;;;;;;;;5092253;28;20020;-78
2021/04/17 07:46:09;;;;;;;11.37;3.50;;;;;;;;;;5098368;28;20024;-79
2021/04/17 07:48:34;;;;;;;8.07;2.60;;;;;;;;;;5095276;28;20027;-79
2021/04/17 07:50:59;;;;;;;13.00;2.87;;;;;;;;;;5092863;28;20030;-78
2021/04/17 07:53:29;;;;;;;5.63;2.60;;;;;;;;;;5080537;28;20540;-78
2021/04/17 07:55:55;;;;;;;10.33;2.90;;;;;;;;;;5097821;28;20068;-78
2021/04/17 07:58:21;;;;;;;7.63;2.63;;;;;;;;;;5094226;28;20511;-78
2021/04/17 08:00:47;;;;;;;6.93;2.60;;;;;;;;;;5091722;28;20380;-78
2021/04/17 08:03:15;;;;;;;7.67;2.70;;;;;;;;;;5092257;28;20048;-78
2021/04/17 08:05:42;;;;;;;14.40;3.03;;;;;;;;;;5092066;28;20039;-78
2021/04/17 08:08:08;;;;;;;10.63;2.80;;;;;;;;;;5117733;28;20383;-78
2021/04/17 08:10:33;;;;;;;7.30;2.20;;;;;;;;;;5103775;28;20016;-78
2021/04/17 08:13:03;;;;;;;7.17;2.40;;;;;;;;;;5108724;28;20099;-79
2021/04/17 08:15:31;;;;;;;6.33;2.30;;;;;;;;;;5107659;28;20016;-79
2021/04/17 08:17:56;;;;;;;5.60;2.00;;;;;;;;;;5099622;28;20020;-79
2021/04/17 08:20:21;;;;;;;9.13;2.10;;;;;;;;;;5095351;28;20025;-79
2021/04/17 08:22:48;;;;;;;9.13;2.20;;;;;;;;;;5098756;28;20022;-79
2021/04/17 08:25:14;;;;;;;5.93;1.90;;;;;;;;;;5098565;28;20023;-79
2021/04/17 08:27:40;;;;;;;8.00;2.10;;;;;;;;;;5120481;28;20045;-78
2021/04/17 08:30:07;;;;;;;4.87;1.90;;;;;;;;;;5101783;28;20019;-78
2021/04/17 08:32:36;;;;;;;7.60;2.13;;;;;;;;;;5115852;28;20019;-79
2021/04/17 08:35:12;;;;;;;13.07;2.53;;;;;;;;;;5100099;28;20031;-79
2021/04/17 08:37:54;;;;;;;6.80;2.10;;;;;;;;;;5092962;28;20441;-79
2021/04/17 08:40:40;;;;;;;4.97;1.88;;;;;;;;;;5107083;28;20256;-79
2021/04/17 08:43:05;;;;;;;4.33;1.60;;;;;;;;;;5099319;28;20039;-79
2021/04/17 08:45:30;;;;;;;4.40;1.67;;;;;;;;;;5103029;28;20020;-79
2021/04/17 08:47:58;;;;;;;6.33;2.00;;;;;;;;;;5110087;28;20023;-80
2021/04/17 08:50:28;;;;;;;4.63;1.67;;;;;;;;;;5095376;28;20031;-80
2021/04/17 08:53:03;;;;;;;7.03;1.63;;;;;;;;;;5099653;28;20020;-80
2021/04/17 08:55:47;;;;;;;7.53;2.00;;;;;;;;;;5095281;28;20020;-80
2021/04/17 08:58:16;;;;;;;5.73;1.50;;;;;;;;;;5098881;28;20093;-80
2021/04/17 09:01:02;;;;;;;7.63;2.00;;;;;;;;;;5092677;28;20032;-79
2021/04/17 09:03:46;;;;;;;6.17;1.97;;;;;;;;;;5035618;28;20056;-80
2021/04/17 09:06:17;;;;;;;8.80;1.70;;;;;;;;;;5096038;28;20027;-79
2021/04/17 09:08:43;;;;;;;5.97;2.00;;;;;;;;;;5098519;28;20023;-78
2021/04/17 09:11:31;;;;;;;6.00;1.50;;;;;;;;;;5099661;28;20024;-79
2021/04/17 09:13:56;;;;;;;4.70;1.73;;;;;;;;;;5072557;28;20024;-79
2021/04/17 09:16:40;;;;;;;5.33;1.80;;;;;;;;;;5092268;28;20016;-79
2021/04/17 09:19:06;;;;;;;9.67;1.90;;;;;;;;;;5099935;28;20024;-80
2021/04/17 09:21:32;;;;;;;7.40;2.27;;;;;;;;;;5082886;28;20032;-79
2021/04/17 09:23:57;;;;;;;5.23;1.70;;;;;;;;;;5079474;28;20031;-79
2021/04/17 09:26:29;;;;;;;4.97;1.70;;;;;;;;;;5079094;28;20012;-79
2021/04/17 09:28:55;;;;;;;5.38;2.13;;;;;;;;;;5097627;28;20051;-79
2021/04/17 09:31:23;;;;;;;5.47;1.57;;;;;;;;;;5083755;28;20024;-79
2021/04/17 09:33:57;;;;;;;4.00;1.47;;;;;;;;;;5081724;28;20000;-78
2021/04/17 09:36:23;;;;;;;4.53;1.50;;;;;;;;;;5092308;28;20076;-79
2021/04/17 09:38:48;;;;;;;5.80;1.53;;;;;;;;;;5098589;28;20102;-79
2021/04/17 09:41:14;;;;;;;4.63;1.53;;;;;;;;;;5083984;28;20032;-80
2021/04/17 09:43:39;;;;;;;6.63;1.40;;;;;;;;;;5078544;28;20025;-80
2021/04/17 09:46:05;;;;;;;5.17;1.67;;;;;;;;;;5080441;28;20021;-79
2021/04/17 09:48:38;;;;;;;4.17;1.50;;;;;;;;;;5078695;28;20427;-79
2021/04/17 09:51:16;;;;;;;6.37;1.30;;;;;;;;;;5075446;28;20017;-79
2021/04/17 09:53:42;;;;;;;8.17;1.60;;;;;;;;;;5097548;28;20012;-80
2021/04/17 09:56:11;;;;;;;6.37;1.40;;;;;;;;;;5097139;28;20035;-80
2021/04/17 09:58:38;;;;;;;7.17;1.57;;;;;;;;;;5097826;28;20046;-80
2021/04/17 10:01:08;;;;;;;5.33;1.50;;;;;;;;;;5097881;28;20016;-79
2021/04/17 10:03:34;;;;;;;5.50;1.47;;;;;;;;;;5095774;28;20044;-79
2021/04/17 10:06:00;;;;;;;6.53;1.30;;;;;;;;;;5095859;28;20020;-79
2021/04/17 10:08:29;;;;;;;5.27;1.20;;;;;;;;;;5089838;28;20035;-79
2021/04/17 10:10:55;;;;;;;5.53;1.20;;;;;;;;;;5097122;28;20023;-80
2021/04/17 10:13:39;;;;;;;3.57;1.20;;;;;;;;;;5095471;28;20012;-79
2021/04/17 10:16:05;;;;;;;4.63;1.30;;;;;;;;;;5093585;28;20027;-79
2021/04/17 10:18:30;;;;;;;3.90;1.30;;;;;;;;;;5094473;28;20392;-80
2021/04/17 10:20:56;;;;;;;2.80;1.00;;;;;;;;;;5082416;28;20024;-80
2021/04/17 10:23:21;;;;;;;5.00;1.10;;;;;;;;;;5097892;28;20037;-80
2021/04/17 10:25:46;;;;;;;3.67;1.10;;;;;;;;;;5107379;28;20024;-80
2021/04/17 10:28:14;;;;;;;3.47;1.30;;;;;;;;;;5098167;28;20024;-80
2021/04/17 10:30:40;;;;;;;3.40;1.00;;;;;;;;;;5092372;28;20040;-80
2021/04/17 10:33:20;;;;;;;2.73;1.00;;;;;;;;;;5118039;28;20020;-80
2021/04/17 10:35:46;;;;;;;5.30;1.00;;;;;;;;;;5096822;28;20369;-80
2021/04/17 10:38:25;;;;;;;3.43;1.20;;;;;;;;;;5090690;28;20028;-80
2021/04/17 10:40:50;;;;;;;5.17;1.10;;;;;;;;;;5097984;28;20027;-81
2021/04/17 10:43:17;;;;;;;4.40;0.93;;;;;;;;;;5092689;28;20096;-81
2021/04/17 10:45:43;;;;;;;3.83;1.10;;;;;;;;;;5085761;28;20031;-81
2021/04/17 10:48:14;;;;;;;3.78;1.00;;;;;;;;;;5085342;28;20100;-80
2021/04/17 10:50:52;;;;;;;2.55;0.82;;;;;;;;;;5108828;28;20032;-81
2021/04/17 10:53:21;;;;;;;5.90;0.90;;;;;;;;;;5088813;28;20028;-81
2021/04/17 10:55:48;;;;;;;3.03;1.17;;;;;;;;;;5096938;28;20031;-81
2021/04/17 10:58:25;;;;;;;2.22;0.80;;;;;;;;;;5078684;28;20024;-80
2021/04/17 11:00:55;;;;;;;6.10;1.25;;;;;;;;;;5107100;28;20020;-80
2021/04/17 11:03:21;;;;;;;6.22;1.67;;;;;;;;;;5104809;28;20058;-81
2021/04/17 11:05:46;;;;;;;4.15;1.30;;;;;;;;;;5088803;28;20020;-81
2021/04/17 11:08:12;;;;;;;3.03;0.98;;;;;;;;;;5112889;28;20020;-80
2021/04/17 11:10:38;;;;;;;3.88;1.10;;;;;;;;;;5104345;28;20013;-81
2021/04/17 11:13:06;;;;;;;5.30;1.20;;;;;;;;;;5088106;28;20030;-80
2021/04/17 11:15:32;;;;;;;5.13;1.10;;;;;;;;;;5106040;28;20021;-80
2021/04/17 11:18:07;;;;;;;3.75;1.05;;;;;;;;;;5100363;28;20024;-80
2021/04/17 11:20:42;;;;;;;4.43;1.08;;;;;;;;;;5069546;28;20028;-81
2021/04/17 11:23:27;;;;;;;4.47;1.30;;;;;;;;;;5098120;28;20024;-80
2021/04/17 11:25:52;;;;;;;3.00;1.03;;;;;;;;;;5105438;28;20047;-80
2021/04/17 11:28:17;;;;;;;4.33;1.07;;;;;;;;;;5100186;28;20020;-79
2021/04/17 11:30:42;;;;;;;4.87;1.20;;;;;;;;;;5098012;28;20031;-80
2021/04/17 11:33:08;;;;;;;3.47;1.00;;;;;;;;;;5114098;28;20023;-79
2021/04/17 11:35:33;;;;;;;3.57;1.13;;;;;;;;;;5096810;28;20024;-80
2021/04/17 11:37:58;;;;;;;3.57;0.90;;;;;;;;;;5093988;28;20055;-79
2021/04/17 11:40:23;;;;;;;1.50;0.73;;;;;;;;;;5091172;28;20020;-80
2021/04/17 11:42:49;;;;;;;3.97;0.87;;;;;;;;;;5112297;28;20027;-80
2021/04/17 11:45:15;;;;;;;4.93;0.80;;;;;;;;;;5100593;28;20107;-79
2021/04/17 11:47:41;;;;;;;3.63;1.33;;;;;;;;;;5096435;28;20020;-79
2021/04/17 11:50:06;;;;;;;3.33;0.90;;;;;;;;;;5099121;28;20042;-79
2021/04/17 11:52:32;;;;;;;6.00;0.80;;;;;;;;;;5085787;28;20057;-80
2021/04/17 11:54:58;;;;;;;3.07;0.97;;;;;;;;;;5089782;28;20035;-80
2021/04/17 11:57:23;;;;;;;4.07;0.80;;;;;;;;;;5098441;28;20589;-80
2021/04/17 11:59:48;;;;;;;2.37;0.70;;;;;;;;;;5109926;28;20024;-81
2021/04/17 12:02:13;;;;;;;2.93;0.80;;;;;;;;;;5099929;28;20396;-80
2021/04/17 12:04:39;;;;;;;2.60;0.63;;;;;;;;;;5101367;28;20089;-81
2021/04/17 12:07:04;;;;;;;4.68;1.02;;;;;;;;;;5096266;28;20496;-81
2021/04/17 12:09:29;;;;;;;3.42;1.10;;;;;;;;;;5081880;28;20019;-80
2021/04/17 12:11:55;;;;;;;4.55;0.90;;;;;;;;;;5100423;28;20449;-81
2021/04/17 12:14:20;;;;;;;3.35;0.90;;;;;;;;;;5091820;28;20023;-81
2021/04/17 12:16:45;;;;;;;3.28;0.88;;;;;;;;;;5105731;28;20015;-81
2021/04/17 12:19:11;;;;;;;2.88;0.90;;;;;;;;;;5113700;28;20107;-80
2021/04/17 12:21:37;;;;;;;14.00;1.17;;;;;;;;;;5096156;28;20350;-81
2021/04/17 12:24:02;;;;;;;2.60;0.73;;;;;;;;;;5093900;28;20102;-80
2021/04/17 12:26:28;;;;;;;6.65;1.10;;;;;;;;;;5089148;28;20028;-81
2021/04/17 12:28:53;;;;;;;2.08;0.73;;;;;;;;;;5097345;28;20050;-81
2021/04/17 12:31:18;;;;;;;4.90;0.70;;;;;;;;;;5097365;28;20023;-83
2021/04/17 12:33:44;;;;;;;2.58;0.82;;;;;;;;;;5097633;28;20782;-81
2021/04/17 12:36:09;;;;;;;3.45;0.82;;;;;;;;;;5097120;28;20036;-81
2021/04/17 12:38:35;;;;;;;7.57;1.10;;;;;;;;;;5094408;28;20028;-80
2021/04/17 12:41:00;;;;;;;6.60;1.30;;;;;;;;;;5096862;28;20304;-80
2021/04/17 12:43:25;;;;;;;3.20;0.90;;;;;;;;;;5115792;28;20030;-79
2021/04/17 12:45:51;;;;;;;5.80;1.00;;;;;;;;;;5094827;28;20016;-79
2021/04/17 12:48:17;;;;;;;2.83;1.00;;;;;;;;;;5093969;28;20016;-79
2021/04/17 12:50:42;;;;;;;2.47;0.77;;;;;;;;;;5094729;28;20446;-79
2021/04/17 12:53:08;;;;;;;3.70;1.27;;;;;;;;;;5115734;28;20024;-80
2021/04/17 12:55:33;;;;;;;3.60;0.80;;;;;;;;;;5079246;28;20164;-79
2021/04/17 12:57:58;;;;;;;4.80;1.20;;;;;;;;;;5096513;28;20016;-79
2021/04/17 13:00:24;;;;;;;4.73;1.40;;;;;;;;;;5091112;28;20752;-78
2021/04/17 13:02:49;;;;;;;4.30;0.90;;;;;;;;;;5085481;28;20044;-79
2021/04/17 13:05:15;;;;;;;4.37;1.20;;;;;;;;;;5085522;28;20024;-80
2021/04/17 13:07:40;;;;;;;2.63;0.80;;;;;;;;;;5089777;28;20123;-79
2021/04/17 13:10:06;;;;;;;2.57;1.00;;;;;;;;;;5096471;28;20032;-78
2021/04/17 13:12:37;;;;;;;4.70;1.00;;;;;;;;;;5095489;28;20031;-79
2021/04/17 13:15:03;;;;;;;6.28;1.40;;;;;;;;;;5107234;28;20032;-79
2021/04/17 13:17:28;;;;;;;3.22;0.98;;;;;;;;;;5091298;28;20028;-79
2021/04/17 13:19:54;;;;;;;3.58;0.98;;;;;;;;;;5088271;28;20036;-79
2021/04/17 13:22:19;;;;;;;3.42;1.00;;;;;;;;;;5089265;28;20071;-79
2021/04/17 13:24:44;;;;;;;5.30;1.25;;;;;;;;;;5084945;28;20024;-79
2021/04/17 13:27:11;;;;;;;3.60;1.08;;;;;;;;;;5083941;28;20024;-79
2021/04/17 13:29:36;;;;;;;2.72;1.00;;;;;;;;;;5090505;28;20074;-79
2021/04/17 13:32:02;;;;;;;3.88;1.20;;;;;;;;;;5090239;28;20031;-79
2021/04/17 13:34:27;;;;;;;4.07;1.27;;;;;;;;;;5096896;28;20020;-79
2021/04/17 13:36:52;;;;;;;4.32;1.00;;;;;;;;;;5082375;28;20472;-79
2021/04/17 13:39:18;;;;;;;7.43;1.40;;;;;;;;;;5082803;28;20047;-79
2021/04/17 13:41:43;;;;;;;7.63;1.50;;;;;;;;;;5086978;28;20031;-79
2021/04/17 13:44:11;;;;;;;4.97;1.38;;;;;;;;;;5106312;28;20468;-79
2021/04/17 13:46:36;;;;;;;4.28;1.40;;;;;;;;;;5094326;28;20030;-78
2021/04/17 13:49:02;;;;;;;8.80;1.40;;;;;;;;;;5099717;28;20452;-78
2021/04/17 13:51:27;;;;;;;5.78;1.48;;;;;;;;;;5092827;28;20031;-77
2021/04/17 13:53:52;;;;;;;4.07;1.25;;;;;;;;;;5089802;28;20094;-79
2021/04/17 13:56:18;;;;;;;4.63;1.23;;;;;;;;;;5086485;28;20028;-79
2021/04/17 13:58:43;;;;;;;6.45;1.40;;;;;;;;;;5085375;28;20031;-79
2021/04/17 14:01:08;;;;;;;5.35;1.20;;;;;;;;;;5067592;28;20500;-78
2021/04/17 14:03:43;;;;;;;5.38;1.50;;;;;;;;;;5089222;28;20043;-78
2021/04/17 14:06:12;;;;;;;3.50;1.33;;;;;;;;;;5092345;28;20056;-79
2021/04/17 14:08:40;;;;;;;5.13;1.35;;;;;;;;;;5097828;28;20054;-79
2021/04/17 14:11:09;;;;;;;6.00;1.65;;;;;;;;;;5071140;28;20459;-79
2021/04/17 14:13:44;;;;;;;4.95;1.27;;;;;;;;;;5089099;28;20020;-79
2021/04/17 14:16:10;;;;;;;4.13;1.58;;;;;;;;;;5084717;28;20379;-79
2021/04/17 14:18:35;;;;;;;3.65;1.35;;;;;;;;;;5091160;28;20028;-79
2021/04/17 14:21:00;;;;;;;4.00;1.30;;;;;;;;;;5090114;28;20590;-79
2021/04/17 14:23:26;;;;;;;4.32;1.83;;;;;;;;;;5089947;28;20028;-78
2021/04/17 14:25:51;;;;;;;4.55;1.40;;;;;;;;;;5086220;28;20406;-78
2021/04/17 14:28:16;;;;;;;6.50;1.73;;;;;;;;;;5091558;28;20023;-78
2021/04/17 14:30:42;;;;;;;4.85;1.45;;;;;;;;;;5088424;28;20024;-79
2021/04/17 14:33:08;;;;;;;3.85;1.40;;;;;;;;;;5090562;28;20540;-79
2021/04/17 14:35:33;;;;;;;2.85;1.20;;;;;;;;;;5090112;28;20024;-79
2021/04/17 14:37:58;;;;;;;3.97;1.20;;;;;;;;;;5088435;28;20364;-79